Flight Track Log - Related Links

Times and Time Zones

All times are in EDT time to prevent confusion due to time zone crossing. See the N199AN flight status page for this flight to view local times or setup timezone preferences in your user account.

Time Position Orientation Groundspeed Altitude Reporting Facility
EDT Latitude Longitude Course Direction KTS MPH feet Rate Location/Type
Sat 08:57:02 PM 40.6260 -73.7840 121° Southeast 159 183 800  Level FlightAware ADS-B
Sat 08:57:27 PM 40.6090 -73.7680 144° Southeast 190 219 1,500 1,500 Climbing FlightAware ADS-B
Sat 08:57:42 PM 40.5990 -73.7590 146° Southeast 206 237 1,800 1,333 Climbing FlightAware ADS-B
Sat 08:58:12 PM 40.5730 -73.7360 146° Southeast 249 287 2,500 1,867 Climbing FlightAware ADS-B
Sat 08:58:27 PM 40.5620 -73.7200 132° Southeast 247 284 3,200 2,700 Climbing FlightAware ADS-B
Sat 08:58:52 PM 40.5460 -73.6870 123° Southeast 260 299 4,300 1,527 Climbing FlightAware ADS-B
Sat 08:59:22 PM 40.5260 -73.6470 123° Southeast 254 292 4,600 327 Climbing FlightAware ADS-B
Sat 08:59:47 PM 40.5100 -73.6130 122° Southeast 250 288 4,600 154 Level FlightAware ADS-B
Sat 09:00:01 PM 40.5006 -73.5935 122° Southeast 252 290 4,700 207 Climbing FlightAware ADS-B
Sat 09:00:16 PM 40.4913 -73.5740 122° Southeast 252 290 4,700  Level FlightAware ADS-B
Sat 09:00:41 PM 40.4783 -73.5401 117° Southeast 252 290 4,700  Level FlightAware ADS-B
Sat 09:01:09 PM 40.4771 -73.4995 92° East 241 277 4,700  Level FlightAware ADS-B
Sat 09:01:14 PM 40.4781 -73.4932 78° East 240 276 4,700  Level FlightAware ADS-B
Sat 09:01:30 PM 40.4824 -73.4704 76° East 239 275 4,700  Level FlightAware ADS-B
Sat 09:01:38 PM 40.4844 -73.4578 78° East 239 275 4,700  Level FlightAware ADS-B
Sat 09:02:12 PM 40.4910 -73.4140 79° East 239 275 4,700 407 Level FlightAware ADS-B
Sat 09:02:37 PM 40.4980 -73.3760 76° East 244 281 5,100 1,946 Climbing FlightAware ADS-B
Sat 09:02:49 PM 40.5014 -73.3571 77° East 243 280 5,900 3,250 Climbing FlightAware ADS-B
Sat 09:03:01 PM 40.5042 -73.3402 78° East 248 285 6,400 2,667 Climbing FlightAware ADS-B
Sat 09:03:16 PM 40.5076 -73.3176 79° East 252 290 7,100 3,000 Climbing FlightAware ADS-B
Sat 09:03:31 PM 40.5114 -73.2946 78° East 255 293 7,900 2,903 Climbing FlightAware ADS-B
Sat 09:03:47 PM 40.5155 -73.2702 78° East 260 299 8,600 2,842 Climbing FlightAware ADS-B
Sat 09:04:09 PM 40.5210 -73.2357 78° East 264 304 9,700 2,143 Climbing FlightAware ADS-B
Sat 09:04:43 PM 40.5304 -73.1804 77° East 296 341 10,600 1,333 Climbing FlightAware ADS-B
Sat 09:05:03 PM 40.5368 -73.1427 77° East 322 371 10,900 1,667 Climbing FlightAware ADS-B
Sat 09:05:37 PM 40.5480 -73.0762 77° East 340 391 12,100 2,280 Climbing FlightAware ADS-B
Sat 09:05:53 PM 40.5538 -73.0433 77° East 347 399 12,800 2,690 Climbing FlightAware ADS-B
Sat 09:06:06 PM 40.5607 -73.0168 71° East 348 400 13,400 2,516 Climbing FlightAware ADS-B
Sat 09:06:24 PM 40.5746 -72.9832 61° Northeast 352 405 14,100 2,432 Climbing FlightAware ADS-B
Sat 09:06:43 PM 40.5947 -72.9508 51° Northeast 359 413 14,900 2,400 Climbing FlightAware ADS-B
Sat 09:07:14 PM 40.6293 -72.9023 47° Northeast 365 420 16,100 2,344 Climbing FlightAware ADS-B
Sat 09:07:47 PM 40.6670 -72.8480 48° Northeast 372 428 17,400 2,500 Climbing FlightAware ADS-B
Sat 09:07:50 PM 40.6714 -72.8414 49° Northeast 373 429 17,600 2,167 Climbing FlightAware ADS-B
Sat 09:08:23 PM 40.7100 -72.7868 47° Northeast 383 441 18,700 2,063 Climbing FlightAware ADS-B
Sat 09:08:54 PM 40.7480 -72.7327 47° Northeast 389 448 19,800 2,164 Climbing FlightAware ADS-B
Sat 09:09:24 PM 40.7847 -72.6788 48° Northeast 394 453 20,900 2,100 Climbing FlightAware ADS-B
Sat 09:09:54 PM 40.8219 -72.6251 48° Northeast 397 457 21,900 2,032 Climbing FlightAware ADS-B
Sat 09:10:26 PM 40.8621 -72.5676 47° Northeast 401 461 23,000 1,935 Climbing FlightAware ADS-B
Sat 09:10:56 PM 40.9002 -72.5134 47° Northeast 407 468 23,900 1,869 Climbing FlightAware ADS-B
Sat 09:11:27 PM 40.9399 -72.4565 47° Northeast 409 471 24,900 1,770 Climbing FlightAware ADS-B
Sat 09:11:57 PM 40.9750 -72.4060 47° Northeast 411 473 25,700 1,714 Climbing FlightAware ADS-B
Sat 09:12:02 PM 40.9842 -72.3930 47° Northeast 413 475 25,900 2,154 Climbing FlightAware ADS-B
Sat 09:12:36 PM 41.0277 -72.3306 47° Northeast 408 470 27,100 1,875 Climbing FlightAware ADS-B
Sat 09:13:06 PM 41.0667 -72.2742 47° Northeast 412 474 27,900 1,433 Climbing FlightAware ADS-B
Sat 09:13:43 PM 41.1153 -72.2039 47° Northeast 420 483 28,700 1,187 Climbing FlightAware ADS-B
Sat 09:14:37 PM 41.1780 -72.1130 47° Northeast 426 490 29,700 1,149 Climbing FlightAware ADS-B
Sat 09:15:17 PM 41.2360 -72.0280 48° Northeast 433 498 30,500 1,333 Climbing FlightAware ADS-B
Sat 09:16:07 PM 41.3040 -71.9300 47° Northeast 434 499 31,700 1,453 Climbing FlightAware ADS-B
Sat 09:16:52 PM 41.3650 -71.8400 48° Northeast 434 499 32,800 1,271 Climbing FlightAware ADS-B
Sat 09:18:57 PM 41.5290 -71.5980 48° Northeast 433 498 35,300 1,236 Climbing FlightAware ADS-B
Sat 09:19:37 PM 41.5820 -71.5190 48° Northeast 427 491 36,200 1,200 Climbing FlightAware ADS-B
Sat 09:20:22 PM 41.6420 -71.4310 48° Northeast 419 482 37,000 533 Climbing FlightAware ADS-B
Sat 09:21:07 PM 41.6990 -71.3450 48° Northeast 415 478 37,000  Level FlightAware ADS-B
Sat 09:21:47 PM 41.7480 -71.2720 48° Northeast 415 478 37,000  Level FlightAware ADS-B
Sat 09:22:27 PM 41.8010 -71.1930 48° Northeast 415 478 37,000  Level FlightAware ADS-B
Sat 09:23:12 PM 41.8580 -71.1070 48° Northeast 415 478 37,000  Level FlightAware ADS-B
Sat 09:23:52 PM 41.9100 -71.0290 48° Northeast 415 478 37,000  Level FlightAware ADS-B
Sat 09:24:32 PM 41.9610 -70.9510 49° Northeast 415 478 37,000  Level FlightAware ADS-B
Sat 09:25:17 PM 42.0150 -70.8690 48° Northeast 415 478 37,000  Level FlightAware ADS-B
Sat 09:25:57 PM 42.0660 -70.7920 48° Northeast 415 478 37,000  Level FlightAware ADS-B
Sat 09:26:42 PM 42.1270 -70.7000 48° Northeast 416 479 37,000  Level FlightAware ADS-B
Sat 09:27:22 PM 42.1780 -70.6210 49° Northeast 418 481 37,000  Level FlightAware ADS-B
Sat 09:28:07 PM 42.2320 -70.5390 48° Northeast 418 481 37,000  Level FlightAware ADS-B
Sat 09:28:47 PM 42.2880 -70.4520 49° Northeast 419 482 37,000  Level FlightAware ADS-B
Sat 09:29:20 PM 42.3178 -70.4128 49° Northeast 413 475 37,000  Level Boston Center
Sat 09:30:20 PM 42.3967 -70.2950 48° Northeast 413 475 37,000  Level Boston Center
Sat 09:31:20 PM 42.4736 -70.1742 49° Northeast 413 475 37,000 -157 Level Boston Center
Sat 09:36:42 PM 42.8930 -69.5050 49° Northeast 428 493 36,000 -149 Descending FlightAware ADS-B
Sat 09:38:02 PM 42.9910 -69.3480 49° Northeast 429 494 36,000  Level FlightAware ADS-B
Sat 09:38:47 PM 43.0540 -69.2470 49° Northeast 437 503 36,000  Level FlightAware ADS-B
Sat 09:39:37 PM 43.1180 -69.1450 49° Northeast 437 503 36,000  Level FlightAware ADS-B
Sat 09:40:52 PM 43.2100 -68.9940 50° Northeast 432 497 36,000  Level FlightAware ADS-B
Sat 09:41:32 PM 43.2540 -68.9230 50° Northeast 432 497 36,000  Level FlightAware ADS-B
Sat 09:42:12 PM 43.3140 -68.8270 49° Northeast 429 494 36,000  Level FlightAware ADS-B
Sat 09:43:22 PM 43.4060 -68.6760 50° Northeast 432 497 36,000  Level FlightAware ADS-B
Sat 09:44:02 PM 43.4500 -68.6040 50° Northeast 432 497 36,000  Level FlightAware ADS-B
Sat 09:44:52 PM 43.5040 -68.5150 50° Northeast 432 497 36,000  Level FlightAware ADS-B
Sat 09:45:32 PM 43.5480 -68.4430 50° Northeast 432 497 36,000  Level FlightAware ADS-B
Sat 09:46:42 PM 43.6580 -68.2610 50° Northeast 427 491 36,000  Level FlightAware ADS-B
Sat 09:47:22 PM 43.7010 -68.1900 50° Northeast 427 491 36,000  Level FlightAware ADS-B
Sat 09:48:22 PM 43.7860 -68.0480 50° Northeast 426 490 36,000  Level FlightAware ADS-B
Sat 09:49:02 PM 43.8380 -67.9610 50° Northeast 426 490 36,000  Level FlightAware ADS-B
Sat 09:49:47 PM 43.8940 -67.8680 50° Northeast 426 490 36,000  Level FlightAware ADS-B
Sat 09:50:42 PM 43.9620 -67.7520 51° Northeast 420 483 36,000  Level FlightAware ADS-B
Sat 09:51:22 PM 44.0130 -67.6670 50° Northeast 421 484 36,000  Level FlightAware ADS-B
Sat 09:52:07 PM 44.0690 -67.5720 51° Northeast 421 484 36,000  Level FlightAware ADS-B
Sat 09:52:37 PM 44.1070 -67.5070 51° Northeast 422 486 36,000  Level FlightAware ADS-B
Sat 09:53:27 PM 44.1680 -67.4020 51° Northeast 421 484 36,000  Level FlightAware ADS-B
Sat 09:54:27 PM 44.2430 -67.2750 50° Northeast 421 484 36,000  Level FlightAware ADS-B
Sat 09:55:02 PM 44.2870 -67.1990 51° Northeast 421 484 36,000  Level FlightAware ADS-B
Sat 09:55:52 PM 44.3490 -67.0940 50° Northeast 422 486 36,000  Level FlightAware ADS-B
Sat 09:56:47 PM 44.4160 -66.9770 51° Northeast 422 486 36,000  Level FlightAware ADS-B
Sat 09:57:27 PM 44.4650 -66.8870 53° Northeast 428 493 36,000  Level FlightAware ADS-B
Sat 09:58:12 PM 44.5180 -66.7880 53° Northeast 428 493 36,000  Level FlightAware ADS-B
Sat 09:58:42 PM 44.5540 -66.7210 53° Northeast 429 494 36,000  Level FlightAware ADS-B
Sat 09:59:27 PM 44.6070 -66.6220 53° Northeast 429 494 36,000  Level FlightAware ADS-B
Sat 10:00:32 PM 44.6850 -66.4770 53° Northeast 432 497 36,000  Level FlightAware ADS-B
Sat 10:01:07 PM 44.7270 -66.3980 53° Northeast 433 498 36,000  Level FlightAware ADS-B
Sat 10:01:52 PM 44.7810 -66.2970 53° Northeast 433 498 36,000  Level FlightAware ADS-B
Sat 10:02:52 PM 44.8520 -66.1620 53° Northeast 433 498 36,000  Level FlightAware ADS-B
Sat 10:03:32 PM 44.9010 -66.0690 53° Northeast 433 498 36,000  Level FlightAware ADS-B
Sat 10:04:12 PM 44.9480 -65.9800 53° Northeast 433 498 36,000  Level FlightAware ADS-B
Sat 10:05:12 PM 45.0190 -65.8440 54° Northeast 434 499 36,000  Level FlightAware ADS-B
Sat 10:05:52 PM 45.0670 -65.7520 54° Northeast 434 499 36,000  Level FlightAware ADS-B
Sat 10:06:32 PM 45.1160 -65.6590 53° Northeast 434 499 36,000  Level FlightAware ADS-B
Sat 10:07:17 PM 45.1680 -65.5590 54° Northeast 434 499 36,000  Level FlightAware ADS-B
Sat 10:07:57 PM 45.2160 -65.4650 54° Northeast 433 498 36,000  Level FlightAware ADS-B
Sat 10:08:42 PM 45.2690 -65.3620 54° Northeast 433 498 36,000  Level FlightAware ADS-B
Sat 10:09:22 PM 45.3170 -65.2700 53° Northeast 426 490 36,000  Level FlightAware ADS-B
Sat 10:10:02 PM 45.3650 -65.1750 54° Northeast 428 493 36,000  Level FlightAware ADS-B
Sat 10:10:47 PM 45.4190 -65.0690 54° Northeast 428 493 36,000  Level FlightAware ADS-B
Sat 10:11:27 PM 45.4660 -64.9770 54° Northeast 426 490 36,000  Level FlightAware ADS-B
Sat 10:12:12 PM 45.5170 -64.8770 54° Northeast 427 491 36,000  Level FlightAware ADS-B
Sat 10:12:52 PM 45.5630 -64.7860 54° Northeast 427 491 36,000  Level FlightAware ADS-B
Sat 10:13:37 PM 45.6140 -64.6850 54° Northeast 427 491 36,000  Level FlightAware ADS-B
Sat 10:14:17 PM 45.6620 -64.5890 54° Northeast 427 491 36,000  Level FlightAware ADS-B
Sat 10:14:52 PM 45.6990 -64.5140 55° Northeast 428 493 36,000  Level FlightAware ADS-B
Sat 10:15:52 PM 45.7670 -64.3790 54° Northeast 428 493 36,000  Level FlightAware ADS-B
Sat 10:16:37 PM 45.8230 -64.2650 55° Northeast 432 497 36,000  Level FlightAware ADS-B
Sat 10:17:17 PM 45.8650 -64.1790 55° Northeast 433 498 36,000  Level FlightAware ADS-B
Sat 10:17:52 PM 45.9040 -64.1020 54° Northeast 433 498 36,000  Level FlightAware ADS-B
Sat 10:18:42 PM 45.9680 -63.9710 55° Northeast 437 503 36,000  Level FlightAware ADS-B
Sat 10:19:17 PM 46.0040 -63.8960 55° Northeast 438 504 36,000  Level FlightAware ADS-B
Sat 10:20:07 PM 46.0620 -63.7780 55° Northeast 438 504 36,000  Level FlightAware ADS-B
Sat 10:20:57 PM 45.9310 -64.0470 235° Southwest 36,000  Level FlightAware ADS-B
Sat 10:21:37 PM 45.9700 -63.9660 55° Northeast 436 502 36,000  Level FlightAware ADS-B
Sat 10:22:27 PM 46.0190 -63.8650 55° Northeast 436 502 36,000  Level FlightAware ADS-B
Sat 10:23:07 PM 46.0580 -63.7840 55° Northeast 436 502 36,000  Level FlightAware ADS-B
Sat 10:23:47 PM 46.0980 -63.7030 55° Northeast 436 502 36,000  Level FlightAware ADS-B
Sat 10:24:27 PM 46.1370 -63.6220 55° Northeast 436 502 36,000  Level FlightAware ADS-B
Sat 10:25:07 PM 46.1760 -63.5410 55° Northeast 436 502 36,000  Level FlightAware ADS-B
Sat 10:25:57 PM 46.2260 -63.4390 55° Northeast 436 502 36,000  Level FlightAware ADS-B
Sat 10:26:37 PM 46.2650 -63.3580 55° Northeast 436 502 36,000  Level FlightAware ADS-B
Sat 10:27:17 PM 46.3040 -63.2770 55° Northeast 436 502 36,000  Level FlightAware ADS-B
Sat 10:27:57 PM 46.3440 -63.1950 55° Northeast 436 502 36,000  Level FlightAware ADS-B
Sat 10:28:37 PM 46.6580 -62.5240 56° Northeast 450 518 36,000  Level FlightAware ADS-B
Sat 10:29:27 PM 46.7110 -62.4080 56° Northeast 450 518 36,000  Level FlightAware ADS-B
Sat 10:30:22 PM 46.7760 -62.2680 56° Northeast 451 519 36,000  Level FlightAware ADS-B
Sat 10:30:57 PM 46.8180 -62.1770 56° Northeast 452 520 36,000  Level FlightAware ADS-B
Sat 10:31:47 PM 46.8680 -62.0690 56° Northeast 452 520 36,000  Level FlightAware ADS-B
Sat 10:32:27 PM 46.9070 -61.9830 56° Northeast 452 520 36,000  Level FlightAware ADS-B
Sat 10:33:07 PM 46.9470 -61.8960 56° Northeast 452 520 36,000  Level FlightAware ADS-B
Sat 10:33:47 PM 46.9870 -61.8100 56° Northeast 452 520 36,000  Level FlightAware ADS-B
Sat 10:34:27 PM 47.0270 -61.7240 56° Northeast 452 520 36,000  Level FlightAware ADS-B
Sat 10:35:17 PM 47.0760 -61.6150 57° Northeast 452 520 36,000  Level FlightAware ADS-B
Sat 10:35:57 PM 47.1670 -61.4020 58° Northeast 455 524 36,000  Level FlightAware ADS-B
Sat 10:36:37 PM 47.2100 -61.3070 56° Northeast 455 524 36,000  Level FlightAware ADS-B
Sat 10:37:22 PM 47.2640 -61.1840 57° Northeast 454 522 36,000  Level FlightAware ADS-B
Sat 10:38:02 PM 47.3050 -61.0910 57° Northeast 454 522 36,000  Level FlightAware ADS-B
Sat 10:38:47 PM 47.3610 -60.9620 57° Northeast 454 522 36,000  Level FlightAware ADS-B
Sat 10:39:22 PM 47.3960 -60.8820 57° Northeast 454 522 36,000  Level FlightAware ADS-B
Sat 10:40:02 PM 47.4350 -60.7930 57° Northeast 454 522 36,000  Level FlightAware ADS-B
Sat 10:40:52 PM 47.4840 -60.6830 57° Northeast 454 522 36,000  Level FlightAware ADS-B
Sat 10:41:32 PM 47.5230 -60.5940 57° Northeast 454 522 36,000  Level FlightAware ADS-B
Sat 10:42:12 PM 47.5620 -60.5050 57° Northeast 454 522 36,000  Level FlightAware ADS-B
Sat 10:42:52 PM 47.6010 -60.4160 57° Northeast 454 522 36,000  Level FlightAware ADS-B
Sat 10:43:32 PM 47.6390 -60.3280 57° Northeast 454 522 36,000  Level FlightAware ADS-B
Sat 10:44:22 PM 47.6880 -60.2160 57° Northeast 454 522 36,000  Level FlightAware ADS-B
Sat 10:45:02 PM 47.7830 -59.9780 59° Northeast 458 527 36,000  Level FlightAware ADS-B
Sat 10:45:47 PM 47.8300 -59.8670 58° Northeast 459 528 36,000  Level FlightAware ADS-B
Sat 10:46:22 PM 47.8710 -59.7690 58° Northeast 459 528 36,000  Level FlightAware ADS-B
Sat 10:47:07 PM 47.9210 -59.6490 58° Northeast 461 531 36,000  Level FlightAware ADS-B
Sat 10:47:52 PM 47.9680 -59.5370 58° Northeast 462 532 36,000  Level FlightAware ADS-B
Sat 10:48:27 PM 48.0120 -59.4300 58° Northeast 462 532 36,000  Level FlightAware ADS-B
Sat 10:49:17 PM 48.0660 -59.2980 58° Northeast 463 533 36,000  Level FlightAware ADS-B
Sat 10:49:57 PM 48.1140 -59.1800 59° Northeast 462 532 36,000  Level FlightAware ADS-B
Sat 10:50:42 PM 48.1650 -59.0570 58° Northeast 463 533 36,000  Level FlightAware ADS-B
Sat 10:51:22 PM 48.2080 -58.9500 59° Northeast 463 533 36,000  Level FlightAware ADS-B
Sat 10:52:02 PM 48.2480 -58.8500 59° Northeast 462 532 36,000  Level FlightAware ADS-B
Sat 10:52:47 PM 48.3030 -58.7150 58° Northeast 462 532 36,000  Level FlightAware ADS-B
Sat 10:53:27 PM 48.3430 -58.6150 59° Northeast 462 532 36,000  Level FlightAware ADS-B
Sat 10:54:12 PM 48.3950 -58.4850 59° Northeast 461 531 36,000  Level FlightAware ADS-B
Sat 10:54:52 PM 48.4380 -58.3770 59° Northeast 461 531 36,000  Level FlightAware ADS-B
Sat 10:55:32 PM 48.4840 -58.2610 59° Northeast 461 531 36,000  Level FlightAware ADS-B
Sat 10:56:17 PM 48.5320 -58.1390 59° Northeast 460 529 36,000 71 Level FlightAware ADS-B
Sat 10:56:57 PM 48.5740 -58.0280 60° Northeast 461 531 36,100 600 Climbing FlightAware ADS-B
Sat 10:57:37 PM 48.6120 -57.9170 63° Northeast 460 529 36,800 988 Climbing FlightAware ADS-B
Sat 10:58:22 PM 48.6550 -57.7920 62° Northeast 461 531 37,500 847 Climbing FlightAware ADS-B
Sat 10:59:02 PM 48.6970 -57.6700 62° Northeast 463 533 38,000 353 Climbing FlightAware ADS-B
Sat 10:59:47 PM 48.7410 -57.5410 63° Northeast 467 537 38,000  Level FlightAware ADS-B
Sat 11:00:27 PM 48.7820 -57.4240 62° Northeast 466 536 38,000  Level FlightAware ADS-B
Sat 11:01:02 PM 48.8140 -57.3280 63° Northeast 465 535 38,000  Level FlightAware ADS-B
Sat 11:01:42 PM 48.8560 -57.2070 62° Northeast 463 533 38,000  Level FlightAware ADS-B
Sat 11:02:27 PM 48.9000 -57.0770 63° Northeast 462 532 38,000  Level FlightAware ADS-B
Sat 11:03:07 PM 48.9390 -56.9610 63° Northeast 461 531 38,000  Level FlightAware ADS-B
Sat 11:03:52 PM 48.9820 -56.8320 63° Northeast 461 531 38,000  Level FlightAware ADS-B
Sat 11:04:32 PM 49.0210 -56.7160 63° Northeast 460 529 38,000  Level FlightAware ADS-B
Sat 11:05:12 PM 49.0590 -56.6020 63° Northeast 460 529 38,000  Level FlightAware ADS-B
Sat 11:05:57 PM 49.1020 -56.4730 63° Northeast 460 529 38,000  Level FlightAware ADS-B
Sat 11:06:37 PM 49.1400 -56.3560 64° Northeast 459 528 38,000  Level FlightAware ADS-B
Sat 11:07:17 PM 49.1780 -56.2410 63° Northeast 459 528 38,000  Level FlightAware ADS-B
Sat 11:08:02 PM 49.2210 -56.1090 63° Northeast 460 529 38,000  Level FlightAware ADS-B
Sat 11:08:42 PM 49.2590 -55.9920 64° Northeast 459 528 38,000  Level FlightAware ADS-B
Sat 11:09:27 PM 49.3010 -55.8630 63° Northeast 459 528 38,000  Level FlightAware ADS-B
Sat 11:10:07 PM 49.3380 -55.7460 64° Northeast 459 528 38,000  Level FlightAware ADS-B
Sat 11:10:52 PM 49.3810 -55.6140 63° Northeast 459 528 38,000  Level FlightAware ADS-B
Sat 11:11:32 PM 49.4180 -55.4970 64° Northeast 460 529 38,000  Level FlightAware ADS-B
Sat 11:12:12 PM 49.4550 -55.3800 64° Northeast 460 529 38,000  Level FlightAware ADS-B
Sat 11:12:57 PM 49.4970 -55.2480 64° Northeast 461 531 38,000  Level FlightAware ADS-B
Sat 11:13:37 PM 49.5340 -55.1300 64° Northeast 462 532 38,000  Level FlightAware ADS-B
Sat 11:14:17 PM 49.5700 -55.0140 64° Northeast 462 532 38,000  Level FlightAware ADS-B
Sat 11:15:02 PM 49.6130 -54.8780 64° Northeast 463 533 38,000  Level FlightAware ADS-B
Sat 11:15:42 PM 49.6480 -54.7630 65° Northeast 463 533 38,000  Level FlightAware ADS-B
Sat 11:16:27 PM 49.6900 -54.6270 64° Northeast 463 533 38,000  Level FlightAware ADS-B
Sat 11:17:07 PM 49.7280 -54.5050 64° Northeast 463 533 38,000  Level FlightAware ADS-B
Sat 11:17:47 PM 49.7640 -54.3870 65° Northeast 463 533 38,000  Level FlightAware ADS-B
Sat 11:18:32 PM 49.8050 -54.2530 65° Northeast 463 533 38,000  Level FlightAware ADS-B
Sat 11:19:12 PM 49.8410 -54.1340 65° Northeast 463 533 38,000  Level FlightAware ADS-B
Sat 11:19:57 PM 49.8810 -54.0000 65° Northeast 463 533 38,000  Level FlightAware ADS-B
Sat 11:20:42 PM 49.9220 -53.8630 65° Northeast 462 532 38,000  Level FlightAware ADS-B
Sat 11:21:22 PM 49.9580 -53.7440 65° Northeast 462 532 38,000  Level FlightAware ADS-B
Sat 11:22:07 PM 49.9980 -53.6070 66° East 463 533 38,000  Level FlightAware ADS-B
Sat 11:22:47 PM 50.0330 -53.4880 65° Northeast 461 531 38,000  Level FlightAware ADS-B
Sat 11:23:27 PM 50.0690 -53.3660 65° Northeast 460 529 38,000  Level FlightAware ADS-B
Sat 11:24:12 PM 50.1080 -53.2310 66° East 458 527 38,000  Level FlightAware ADS-B
Sat 11:24:52 PM 50.1430 -53.1110 65° Northeast 456 525 38,000  Level FlightAware ADS-B
Sat 11:25:32 PM 50.1770 -52.9920 66° East 454 522 38,000  Level FlightAware ADS-B
Sat 11:26:17 PM 50.2150 -52.8610 66° East 456 525 38,000  Level FlightAware ADS-B
Sat 11:26:57 PM 50.2500 -52.7380 66° East 465 535 38,000  Level FlightAware ADS-B
Sat 11:27:42 PM 50.2890 -52.5990 66° East 469 540 38,000  Level FlightAware ADS-B
Sat 11:28:22 PM 50.3250 -52.4740 66° East 468 539 38,000  Level FlightAware ADS-B
Sat 11:29:02 PM 50.3590 -52.3530 66° East 463 533 38,000  Level FlightAware ADS-B
Sat 11:29:47 PM 50.3940 -52.2270 66° East 456 525 38,000  Level FlightAware ADS-B
Sat 11:30:17 PM 50.4220 -52.1260 66° East 455 524 38,000  Level FlightAware ADS-B
Sat 11:31:22 PM 50.4760 -51.9310 66° East 457 526 38,000  Level FlightAware ADS-B
Sat 11:32:17 PM 50.5210 -51.7700 66° East 457 526 38,000  Level FlightAware ADS-B
Sat 11:33:17 PM 50.5680 -51.5980 67° East 457 526 38,000  Level FlightAware ADS-B
Sat 11:33:57 PM 50.5970 -51.4950 66° East 457 526 38,000  Level FlightAware ADS-B
Sat 11:34:37 PM 50.6260 -51.3910 66° East 457 526 38,000  Level FlightAware ADS-B
Sat 11:35:17 PM 50.6560 -51.2880 65° Northeast 457 526 38,000  Level FlightAware ADS-B
Sat 11:35:57 PM 50.6850 -51.1840 66° East 457 526 38,000  Level FlightAware ADS-B
Sat 11:36:47 PM 50.7210 -51.0550 66° East 457 526 38,000  Level FlightAware ADS-B
Sat 11:37:27 PM 50.7510 -50.9510 65° Northeast 457 526 38,000  Level FlightAware ADS-B
Sat 11:38:07 PM 50.7800 -50.8470 66° East 457 526 38,000  Level FlightAware ADS-B
Sat 11:38:47 PM 50.8090 -50.7430 66° East 457 526 38,000  Level FlightAware ADS-B
Sat 11:39:27 PM 50.8380 -50.6390 66° East 457 526 38,000  Level FlightAware ADS-B
Sat 11:40:17 PM 50.8750 -50.5090 66° East 457 526 38,000  Level FlightAware ADS-B
Sat 11:40:57 PM 50.9040 -50.4050 66° East 457 526 38,000  Level FlightAware ADS-B
Sat 11:41:37 PM 50.9330 -50.3010 66° East 457 526 38,000  Level FlightAware ADS-B
Sat 11:42:17 PM 50.9630 -50.1960 66° East 457 526 38,000  Level FlightAware ADS-B
Sat 11:42:32 PM 51.0167 -49.7833 66° East 460 529 38,000  Level Moncton Center
Sat 11:43:17 PM 51.0667 -49.6167 64° Northeast 460 529 38,000  Level Gander Center
Sat 11:44:00 PM 51.0000 -50.0000 68° East 465 535 38,000  Level ETMS Enhanced Traffic Management System
Sat 11:44:17 PM 51.1167 -49.4500 68° East 460 529 38,000  Level Gander Center
Sat 11:45:17 PM 51.1500 -49.2500 75° East 450 518 38,000  Level Gander Center
Sat 11:46:17 PM 51.2000 -49.0667 66° East 460 529 38,000  Level Gander Center
Sat 11:48:00 PM 51.2725 -48.7726 68° East  Level FlightAware Approximate
Sat 11:55:00 PM 51.5808 -47.4751 69° East  Level FlightAware Approximate
Sat 11:56:00 PM 51.6236 -47.2883 70° East  Level FlightAware Approximate
Sat 11:57:00 PM 51.6662 -47.1012 70° East  Level FlightAware Approximate
Sat 11:58:00 PM 51.7085 -46.9137 70° East  Level FlightAware Approximate
Sat 11:59:00 PM 51.7505 -46.7259 70° East  Level FlightAware Approximate
Sun 12:00:00 AM 51.7921 -46.5377 70° East  Level FlightAware Approximate
Sun 12:01:00 AM 51.8335 -46.3493 71° East  Level FlightAware Approximate
Sun 12:02:00 AM 51.8736 -46.1599 71° East  Level FlightAware Approximate
Sun 12:03:00 AM 51.9135 -45.9702 71° East  Level FlightAware Approximate
Sun 12:04:00 AM 51.9530 -45.7801 71° East  Level FlightAware Approximate
Sun 12:05:00 AM 51.9922 -45.5897 71° East  Level FlightAware Approximate
Sun 12:06:00 AM 52.0311 -45.3990 72° East  Level FlightAware Approximate
Sun 12:07:00 AM 52.0697 -45.2079 72° East  Level FlightAware Approximate
Sun 12:08:00 AM 52.1080 -45.0165 72° East  Level FlightAware Approximate
Sun 12:09:00 AM 52.1460 -44.8248 72° East  Level FlightAware Approximate
Sun 12:10:00 AM 52.1837 -44.6327 72° East  Level FlightAware Approximate
Sun 12:11:00 AM 52.2210 -44.4404 72° East  Level FlightAware Approximate
Sun 12:12:00 AM 52.2581 -44.2477 72° East  Level FlightAware Approximate
Sun 12:13:00 AM 52.2948 -44.0547 73° East  Level FlightAware Approximate
Sun 12:14:00 AM 52.3312 -43.8613 73° East  Level FlightAware Approximate
Sun 12:15:00 AM 52.3681 -43.6681 73° East  Level FlightAware Approximate
Sun 12:16:00 AM 52.4048 -43.4745 73° East  Level FlightAware Approximate
Sun 12:17:00 AM 52.4411 -43.2807 73° East  Level FlightAware Approximate
Sun 12:18:00 AM 52.4771 -43.0865 73° East  Level FlightAware Approximate
Sun 12:19:00 AM 52.5129 -42.8920 73° East  Level FlightAware Approximate
Sun 12:20:00 AM 52.5482 -42.6972 73° East  Level FlightAware Approximate
Sun 12:21:00 AM 52.5833 -42.5021 73° East  Level FlightAware Approximate
Sun 12:22:00 AM 52.6180 -42.3067 74° East  Level FlightAware Approximate
Sun 12:23:00 AM 52.6525 -42.1109 74° East  Level FlightAware Approximate
Sun 12:24:00 AM 52.6866 -41.9149 74° East  Level FlightAware Approximate
Sun 12:25:00 AM 52.7203 -41.7185 74° East  Level FlightAware Approximate
Sun 12:26:00 AM 52.7538 -41.5219 74° East  Level FlightAware Approximate
Sun 12:27:00 AM 52.7869 -41.3249 74° East  Level FlightAware Approximate
Sun 12:28:00 AM 52.8197 -41.1277 75° East  Level FlightAware Approximate
Sun 12:29:00 AM 52.8522 -40.9301 75° East  Level FlightAware Approximate
Sun 12:30:00 AM 52.8843 -40.7323 75° East  Level FlightAware Approximate
Sun 12:31:00 AM 52.9161 -40.5341 75° East  Level FlightAware Approximate
Sun 12:32:00 AM 52.9476 -40.3357 75° East  Level FlightAware Approximate
Sun 12:32:00 AM 53.0000 -40.0000 86° East 491 565 38,000  Level ETMS Enhanced Traffic Management System
Sun 12:33:00 AM 52.9787 -40.1370 75° East  Level FlightAware Approximate
Sun 12:34:00 AM 53.0027 -39.9362 86° East  Level FlightAware Approximate
Sun 12:35:00 AM 53.0110 -39.7311 86° East  Level FlightAware Approximate
Sun 12:36:00 AM 53.0190 -39.5259 86° East  Level FlightAware Approximate
Sun 12:37:00 AM 53.0266 -39.3207 86° East  Level FlightAware Approximate
Sun 12:38:00 AM 53.0339 -39.1154 87° East  Level FlightAware Approximate
Sun 12:39:00 AM 53.0683 -37.9577 88° East 491 565 38,000  Level FlightAware Transoceanic
Sun 12:40:00 AM 53.0737 -37.7304 88° East 491 565 38,000  Level FlightAware Transoceanic
Sun 12:41:00 AM 53.0787 -37.5031 88° East 491 565 38,000  Level FlightAware Transoceanic
Sun 12:42:00 AM 53.0832 -37.2757 88° East 491 565 38,000  Level FlightAware Transoceanic
Sun 12:43:00 AM 53.0873 -37.0482 88° East 491 565 38,000  Level FlightAware Transoceanic
Sun 12:44:00 AM 53.0910 -36.8208 89° East 491 565 38,000  Level FlightAware Transoceanic
Sun 12:45:00 AM 53.0943 -36.5932 89° East 491 565 38,000  Level FlightAware Transoceanic
Sun 12:46:00 AM 53.0971 -36.3657 89° East 491 565 38,000  Level FlightAware Transoceanic
Sun 12:47:00 AM 53.0995 -36.1381 89° East 491 565 38,000  Level FlightAware Transoceanic
Sun 12:48:00 AM 53.1015 -35.9105 89° East 491 565 38,000  Level FlightAware Transoceanic
Sun 12:49:00 AM 53.1030 -35.6829 89° East 491 565 38,000  Level FlightAware Transoceanic
Sun 12:50:00 AM 53.1041 -35.4553 90° East 491 565 38,000  Level FlightAware Transoceanic
Sun 12:51:00 AM 53.1047 -35.2276 90° East 491 565 38,000  Level FlightAware Transoceanic
Sun 12:52:00 AM 53.1049 -35.0000 90° East 491 565 38,000  Level FlightAware Transoceanic
Sun 12:53:00 AM 53.1047 -34.7724 90° East 491 565 38,000  Level FlightAware Transoceanic
Sun 12:54:00 AM 53.1041 -34.5447 90° East 491 565 38,000  Level FlightAware Transoceanic
Sun 12:55:00 AM 53.1030 -34.3171 91° East 491 565 38,000  Level FlightAware Transoceanic
Sun 12:56:00 AM 53.1015 -34.0895 91° East 491 565 38,000  Level FlightAware Transoceanic
Sun 12:57:00 AM 53.0995 -33.8619 91° East 491 565 38,000  Level FlightAware Transoceanic
Sun 12:58:00 AM 53.0971 -33.6343 91° East 491 565 38,000  Level FlightAware Transoceanic
Sun 12:59:00 AM 53.0943 -33.4068 91° East 491 565 38,000  Level FlightAware Transoceanic
Sun 01:00:00 AM 53.0910 -33.1792 91° East 491 565 38,000  Level FlightAware Transoceanic
Sun 01:01:00 AM 53.0873 -32.9518 92° East 491 565 38,000  Level FlightAware Transoceanic
Sun 01:02:00 AM 53.0832 -32.7243 92° East 491 565 38,000  Level FlightAware Transoceanic
Sun 01:03:00 AM 53.0787 -32.4969 92° East 491 565 38,000  Level FlightAware Transoceanic
Sun 01:04:00 AM 53.0737 -32.2696 92° East 491 565 38,000  Level FlightAware Transoceanic
Sun 01:05:00 AM 53.0683 -32.0423 92° East 491 565 38,000  Level FlightAware Transoceanic
Sun 01:06:00 AM 53.0624 -31.8151 93° East 491 565 38,000  Level FlightAware Transoceanic
Sun 01:07:00 AM 53.0561 -31.5879 93° East 491 565 38,000  Level FlightAware Transoceanic
Sun 01:08:00 AM 53.0494 -31.3609 93° East 491 565 38,000  Level FlightAware Transoceanic
Sun 01:09:00 AM 53.0422 -31.1338 93° East 491 565 38,000  Level FlightAware Transoceanic
Sun 01:10:00 AM 53.0347 -30.9069 93° East 491 565 38,000  Level FlightAware Transoceanic
Sun 01:11:00 AM 53.0266 -30.6800 93° East 491 565 38,000  Level FlightAware Transoceanic
Sun 01:12:00 AM 53.0182 -30.4533 94° East 491 565 38,000  Level FlightAware Transoceanic
Sun 01:13:00 AM 53.0093 -30.2266 94° East 491 565 38,000  Level FlightAware Transoceanic
Sun 01:14:00 AM 53.0009 -30.0215 94° East  Level FlightAware Approximate
Sun 01:15:00 AM 52.9922 -29.8165 94° East  Level FlightAware Approximate
Sun 01:16:00 AM 53.0061 -29.8380 86° East  Level FlightAware Approximate
Sun 01:16:00 AM 53.0000 -30.0000 86° East 503 579 38,000  Level ETMS Enhanced Traffic Management System
Sun 01:17:00 AM 53.0134 -29.6328 87° East  Level FlightAware Approximate
Sun 01:18:00 AM 53.0204 -29.4275 87° East  Level FlightAware Approximate
Sun 01:19:00 AM 53.0270 -29.2222 87° East  Level FlightAware Approximate
Sun 01:20:00 AM 53.0333 -29.0168 87° East  Level FlightAware Approximate
Sun 01:21:00 AM 53.0392 -28.8114 87° East  Level FlightAware Approximate
Sun 01:22:00 AM 53.0635 -28.1426 87° East 503 579 38,000  Level FlightAware Transoceanic
Sun 01:23:00 AM 53.0694 -27.9101 88° East 503 579 38,000  Level FlightAware Transoceanic
Sun 01:24:00 AM 53.0749 -27.6775 88° East 503 579 38,000  Level FlightAware Transoceanic
Sun 01:25:00 AM 53.0799 -27.4449 88° East 503 579 38,000  Level FlightAware Transoceanic
Sun 01:26:00 AM 53.0844 -27.2122 88° East 503 579 38,000  Level FlightAware Transoceanic
Sun 01:27:00 AM 53.0885 -26.9795 88° East 503 579 38,000  Level FlightAware Transoceanic
Sun 01:28:00 AM 53.0922 -26.7467 89° East 503 579 38,000  Level FlightAware Transoceanic
Sun 01:29:00 AM 53.0953 -26.5139 89° East 503 579 38,000  Level FlightAware Transoceanic
Sun 01:30:00 AM 53.0981 -26.2810 89° East 503 579 38,000  Level FlightAware Transoceanic
Sun 01:31:00 AM 53.1003 -26.0481 89° East 503 579 38,000  Level FlightAware Transoceanic
Sun 01:32:00 AM 53.1021 -25.8152 89° East 503 579 38,000  Level FlightAware Transoceanic
Sun 01:33:00 AM 53.1035 -25.5823 90° East 503 579 38,000  Level FlightAware Transoceanic
Sun 01:34:00 AM 53.1044 -25.3494 90° East 503 579 38,000  Level FlightAware Transoceanic
Sun 01:35:00 AM 53.1049 -25.1165 90° East 503 579 38,000  Level FlightAware Transoceanic
Sun 01:36:00 AM 53.1049 -24.8835 90° East 503 579 38,000  Level FlightAware Transoceanic
Sun 01:37:00 AM 53.1044 -24.6506 90° East 503 579 38,000  Level FlightAware Transoceanic
Sun 01:38:00 AM 53.1035 -24.4177 90° East 503 579 38,000  Level FlightAware Transoceanic
Sun 01:39:00 AM 53.1021 -24.1848 91° East 503 579 38,000  Level FlightAware Transoceanic
Sun 01:40:00 AM 53.1003 -23.9519 91° East 503 579 38,000  Level FlightAware Transoceanic
Sun 01:41:00 AM 53.0981 -23.7190 91° East 503 579 38,000  Level FlightAware Transoceanic
Sun 01:42:00 AM 53.0953 -23.4861 91° East 503 579 38,000  Level FlightAware Transoceanic
Sun 01:43:00 AM 53.0922 -23.2533 91° East 503 579 38,000  Level FlightAware Transoceanic
Sun 01:44:00 AM 53.0885 -23.0205 92° East 503 579 38,000  Level FlightAware Transoceanic
Sun 01:45:00 AM 53.0844 -22.7878 92° East 503 579 38,000  Level FlightAware Transoceanic
Sun 01:46:00 AM 53.0799 -22.5551 92° East 503 579 38,000  Level FlightAware Transoceanic
Sun 01:47:00 AM 53.0749 -22.3225 92° East 503 579 38,000  Level FlightAware Transoceanic
Sun 01:48:00 AM 53.0694 -22.0899 92° East 503 579 38,000  Level FlightAware Transoceanic
Sun 01:49:00 AM 53.0635 -21.8574 93° East 503 579 38,000  Level FlightAware Transoceanic
Sun 01:50:00 AM 53.0572 -21.6249 93° East 503 579 38,000  Level FlightAware Transoceanic
Sun 01:51:00 AM 53.0504 -21.3925 93° East 503 579 38,000  Level FlightAware Transoceanic
Sun 01:52:00 AM 53.0431 -21.1602 93° East 503 579 38,000  Level FlightAware Transoceanic
Sun 01:53:00 AM 53.0354 -20.9280 93° East 503 579 38,000  Level FlightAware Transoceanic
Sun 01:54:00 AM 53.0272 -20.6959 93° East 503 579 38,000  Level FlightAware Transoceanic
Sun 01:55:00 AM 53.0186 -20.4638 94° East 503 579 38,000  Level FlightAware Transoceanic
Sun 01:56:00 AM 53.0095 -20.2319 94° East 503 579 38,000  Level FlightAware Transoceanic
Sun 01:57:00 AM 53.0011 -20.0268 94° East  Level FlightAware Approximate
Sun 01:58:00 AM 52.9924 -19.8218 94° East  Level FlightAware Approximate
Sun 01:59:00 AM 53.0136 -19.8502 81° East  Level FlightAware Approximate
Sun 02:00:00 AM 53.0318 -19.6468 81° East  Level FlightAware Approximate
Sun 02:01:00 AM 53.0497 -19.4433 82° East  Level FlightAware Approximate
Sun 02:02:00 AM 53.0672 -19.2395 82° East  Level FlightAware Approximate
Sun 02:03:00 AM 53.0843 -19.0357 82° East  Level FlightAware Approximate
Sun 02:04:00 AM 53.1011 -18.8316 82° East  Level FlightAware Approximate
Sun 02:05:00 AM 53.1176 -18.6274 82° East  Level FlightAware Approximate
Sun 02:06:00 AM 53.1337 -18.4231 82° East  Level FlightAware Approximate
Sun 02:07:00 AM 53.1494 -18.2186 83° East  Level FlightAware Approximate
Sun 02:08:00 AM 53.1648 -18.0139 83° East  Level FlightAware Approximate
Sun 02:09:00 AM 53.1799 -17.8091 83° East  Level FlightAware Approximate
Sun 02:10:00 AM 53.1946 -17.6042 83° East  Level FlightAware Approximate
Sun 02:11:00 AM 53.2089 -17.3991 83° East  Level FlightAware Approximate
Sun 02:12:00 AM 53.2229 -17.1939 83° East  Level FlightAware Approximate
Sun 02:13:00 AM 53.2365 -16.9885 84° East  Level FlightAware Approximate
Sun 02:14:00 AM 53.2498 -16.7831 84° East  Level FlightAware Approximate
Sun 02:15:00 AM 53.2627 -16.5774 84° East  Level FlightAware Approximate
Sun 02:16:00 AM 53.2753 -16.3717 84° East  Level FlightAware Approximate
Sun 02:17:00 AM 53.2876 -16.1659 84° East  Level FlightAware Approximate
Sun 02:18:00 AM 53.2994 -15.9599 84° East  Level FlightAware Approximate
Sun 02:19:00 AM 53.3110 -15.7538 85° East  Level FlightAware Approximate
Sun 02:20:00 AM 53.3221 -15.5477 85° East  Level FlightAware Approximate
Sun 02:21:00 AM 53.3329 -15.3414 85° East  Level FlightAware Approximate
Sun 02:22:00 AM 53.3434 -15.1350 85° East  Level FlightAware Approximate
Sun 02:23:00 AM 53.3536 -14.9285 85° East  Level FlightAware Approximate
Sun 02:24:00 AM 53.3636 -14.7219 85° East  Level FlightAware Approximate
Sun 02:25:00 AM 53.3733 -14.5153 85° East  Level FlightAware Approximate
Sun 02:25:47 AM 53.0760 -13.8790 86° East 488 562 38,000  Level FlightAware ADS-B
Sun 02:26:00 AM 53.3826 -14.3086 86° East  Level FlightAware Approximate
Sun 02:26:27 AM 53.0890 -13.7290 82° East 487 560 38,000  Level FlightAware ADS-B
Sun 02:27:07 AM 53.1010 -13.5860 82° East 486 559 38,000  Level FlightAware ADS-B
Sun 02:27:52 AM 53.1140 -13.4250 82° East 487 560 38,000  Level FlightAware ADS-B
Sun 02:28:37 AM 53.1290 -13.2480 82° East 486 559 38,000  Level FlightAware ADS-B
Sun 02:29:12 AM 53.1390 -13.1310 82° East 486 559 38,000  Level FlightAware ADS-B
Sun 02:30:02 AM 53.1540 -12.9350 83° East 485 558 38,000  Level FlightAware ADS-B
Sun 02:30:42 AM 53.1650 -12.7960 82° East 484 557 38,000  Level FlightAware ADS-B
Sun 02:31:22 AM 53.1770 -12.6390 83° East 482 555 38,000  Level FlightAware ADS-B
Sun 02:32:07 AM 53.1890 -12.4730 83° East 482 555 38,000  Level FlightAware ADS-B
Sun 02:32:47 AM 53.2000 -12.3350 82° East 482 555 38,000  Level FlightAware ADS-B
Sun 02:33:32 AM 53.2120 -12.1650 83° East 481 554 38,000  Level FlightAware ADS-B
Sun 02:34:12 AM 53.2230 -12.0120 83° East 481 554 38,000  Level FlightAware ADS-B
Sun 02:34:57 AM 53.2340 -11.8460 84° East 482 555 38,000  Level FlightAware ADS-B
Sun 02:35:37 AM 53.2440 -11.6990 83° East 481 554 38,000  Level FlightAware ADS-B
Sun 02:36:17 AM 53.2540 -11.5500 84° East 481 554 38,000  Level FlightAware ADS-B
Sun 02:37:02 AM 53.2640 -11.3860 84° East 482 555 38,000  Level FlightAware ADS-B
Sun 02:37:42 AM 53.2740 -11.2360 84° East 482 555 38,000  Level FlightAware ADS-B
Sun 02:38:22 AM 53.2830 -11.0900 84° East 482 555 38,000  Level FlightAware ADS-B
Sun 02:39:07 AM 53.2930 -10.9240 84° East 481 554 38,000  Level FlightAware ADS-B
Sun 02:39:47 AM 53.3020 -10.7780 84° East 481 554 38,000  Level FlightAware ADS-B
Sun 02:40:32 AM 53.3120 -10.6090 84° East 479 551 38,000  Level FlightAware ADS-B
Sun 02:41:12 AM 53.3200 -10.4630 85° East 480 552 38,000  Level FlightAware ADS-B
Sun 02:41:52 AM 53.3280 -10.3160 85° East 479 551 38,000  Level FlightAware ADS-B
Sun 02:42:37 AM 53.3370 -10.1510 85° East 478 550 38,000  Level FlightAware ADS-B
Sun 02:43:17 AM 53.3450 -9.9980 85° East 477 549 38,000  Level FlightAware ADS-B
Sun 02:43:57 AM 53.3520 -9.8530 85° East 476 548 38,000  Level FlightAware ADS-B
Sun 02:44:42 AM 53.3600 -9.6850 85° East 474 545 38,000  Level FlightAware ADS-B
Sun 02:45:27 AM 53.3680 -9.5240 85° East 472 543 38,000  Level FlightAware ADS-B
Sun 02:46:07 AM 53.3750 -9.3790 85° East 472 543 38,000  Level FlightAware ADS-B
Sun 02:46:47 AM 53.3810 -9.2370 86° East 471 542 38,000  Level FlightAware ADS-B
Sun 02:47:27 AM 53.3880 -9.0890 85° East 470 541 38,000 -1,636 Level FlightAware ADS-B
Sun 02:47:42 AM 53.3806 -8.9789 85° East 450 518 36,500 -2,727 Descending FlightAware UK
Sun 02:48:00 AM 53.3837 -8.9145 85° East 450 518 36,500 3,000 Level FlightAware UK
Sun 02:48:12 AM 53.3950 -8.9250 85° East 470 541 38,000  Climbing FlightAware ADS-B
Sun 02:48:30 AM 53.3883 -8.8062 85° East 450 518 36,500 -2,500 Descending FlightAware UK
Sun 02:48:48 AM 53.3909 -8.7410 86° East 450 518 36,500 4,091 Level FlightAware UK
Sun 02:48:52 AM 53.4000 -8.7800 86° East 470 541 38,000  Climbing FlightAware ADS-B
Sun 02:49:12 AM 53.3946 -8.6544 86° East 450 518 36,500 -2,368 Descending FlightAware UK
Sun 02:49:30 AM 53.3972 -8.5894 86° East 450 518 36,500 4,500 Level FlightAware UK
Sun 02:49:32 AM 53.4060 -8.6380 86° East 470 541 38,000  Climbing FlightAware ADS-B
Sun 02:49:48 AM 53.3997 -8.5244 86° East 452 520 36,500 -2,647 Descending FlightAware UK
Sun 02:50:06 AM 53.4022 -8.4593 86° East 454 522 36,500 3,103 Level FlightAware UK
Sun 02:50:17 AM 53.4130 -8.4720 86° East 469 540 38,000  Climbing FlightAware ADS-B
Sun 02:50:36 AM 53.4063 -8.3502 86° East 454 522 36,500 -2,432 Descending FlightAware UK
Sun 02:50:54 AM 53.4087 -8.2851 86° East 452 520 36,500  Level FlightAware UK
Sun 02:51:12 AM 53.4111 -8.2203 86° East 452 520 36,500  Level FlightAware UK
Sun 02:51:30 AM 53.4135 -8.1552 86° East 452 520 36,500  Level FlightAware UK
Sun 02:51:48 AM 53.4159 -8.0901 86° East 452 520 36,500  Level FlightAware UK
Sun 02:52:06 AM 53.4183 -8.0250 87° East 452 520 36,500  Level FlightAware UK
Sun 02:52:24 AM 53.4205 -7.9599 87° East 452 520 36,500 2,903 Level FlightAware UK
Sun 02:52:37 AM 53.4300 -7.9780 87° East 471 542 38,000  Climbing FlightAware ADS-B
Sun 02:52:54 AM 53.4241 -7.8511 87° East 454 522 36,500 -2,571 Descending FlightAware UK
Sun 02:53:12 AM 53.4263 -7.7857 87° East 454 522 36,500 3,214 Level FlightAware UK
Sun 02:53:22 AM 53.4360 -7.8090 87° East 471 542 38,000  Climbing FlightAware ADS-B
Sun 02:53:42 AM 53.4299 -7.6768 87° East 452 520 36,500  Descending FlightAware UK
Sun 02:54:02 AM 53.4400 -7.6600 87° East 471 542 38,000  Climbing FlightAware ADS-B
Sun 02:54:18 AM 53.4342 -7.5459 87° East 454 522 36,500 -2,647 Descending FlightAware UK
Sun 02:54:36 AM 53.4362 -7.4805 87° East 452 520 36,500 3,750 Level FlightAware UK
Sun 02:54:42 AM 53.4450 -7.5160 87° East 471 542 38,000  Climbing FlightAware ADS-B
Sun 02:55:00 AM 53.4387 -7.3933 87° East 452 520 36,500 -2,500 Descending FlightAware UK
Sun 02:55:18 AM 53.4407 -7.3279 87° East 456 525 36,500 3,333 Level FlightAware UK
Sun 02:55:27 AM 53.4490 -7.3510 87° East 472 543 38,000  Climbing FlightAware ADS-B
Sun 02:55:42 AM 53.4432 -7.2405 87° East 460 529 36,500 -2,727 Descending FlightAware UK
Sun 02:56:00 AM 53.4451 -7.1742 87° East 458 527 36,500 3,600 Level FlightAware UK
Sun 02:56:07 AM 53.4530 -7.2080 87° East 471 542 38,000  Climbing FlightAware ADS-B
Sun 02:56:24 AM 53.4475 -7.0868 87° East 456 525 36,500 -2,571 Descending FlightAware UK
Sun 02:56:42 AM 53.4493 -7.0214 87° East 462 532 36,500 3,214 Level FlightAware UK
Sun 02:56:52 AM 53.4580 -7.0440 87° East 470 541 38,000  Climbing FlightAware ADS-B
Sun 02:57:12 AM 53.4523 -6.9125 87° East 454 522 36,500  Descending FlightAware UK
Sun 02:57:32 AM 53.4610 -6.9020 87° East 469 540 38,000  Climbing FlightAware ADS-B
Sun 02:57:48 AM 53.4554 -6.7822 87° East 458 527 36,500 -2,647 Descending FlightAware UK
Sun 02:58:06 AM 53.4570 -6.7171 88° East 456 525 36,500 3,750 Level FlightAware UK
Sun 02:58:12 AM 53.4650 -6.7540 88° East 468 539 38,000  Climbing FlightAware ADS-B
Sun 02:58:30 AM 53.4591 -6.6304 88° East 456 525 36,500 -2,500 Descending FlightAware UK
Sun 02:58:48 AM 53.4606 -6.5655 88° East 456 525 36,500 3,333 Level FlightAware UK
Sun 02:58:57 AM 53.4680 -6.5890 88° East 468 539 38,000  Climbing FlightAware ADS-B
Sun 02:59:12 AM 53.4625 -6.4789 88° East 456 525 36,500 -3,091 Descending FlightAware UK
Sun 02:59:30 AM 53.4641 -6.4140 88° East 458 527 36,300 3,360 Descending FlightAware UK
Sun 02:59:37 AM 53.4710 -6.4450 88° East 467 537 37,900 -1,250 Climbing FlightAware ADS-B
Sun 02:59:54 AM 53.4659 -6.3275 88° East 468 539 35,800 -4,800 Descending FlightAware UK
Sun 03:00:12 AM 53.4671 -6.2628 88° East 470 541 35,100 1,071 Descending FlightAware UK
Sun 03:00:22 AM 53.4750 -6.2750 88° East 462 532 36,300 -2,600 Climbing FlightAware ADS-B
Sun 03:00:42 AM 53.4691 -6.1555 88° East 456 525 33,800 -2,700 Descending FlightAware UK
Sun 03:01:02 AM 53.4770 -6.1330 88° East 466 536 34,500 -3,000 Climbing FlightAware ADS-B
Sun 03:01:18 AM 53.4716 -6.0259 88° East 460 529 32,000 -6,000 Descending FlightAware UK
Sun 03:01:36 AM 53.4730 -5.9609 88° East 460 529 31,100 1,000 Descending FlightAware UK
Sun 03:01:42 AM 53.4800 -5.9860 88° East 472 543 32,400 -3,250 Climbing FlightAware ADS-B
Sun 03:02:00 AM 53.4743 -5.8725 88° East 462 532 29,800 -6,000 Descending FlightAware UK
Sun 03:02:18 AM 53.4755 -5.8063 88° East 466 536 28,800 889 Descending FlightAware UK
Sun 03:02:27 AM 53.4830 -5.8310 88° East 476 548 30,200 -2,500 Climbing FlightAware ADS-B
Sun 03:02:42 AM 53.4770 -5.7181 88° East 458 527 27,800 -5,455 Descending FlightAware UK
Sun 03:03:00 AM 53.4780 -5.6527 88° East 454 522 27,200 1,680 Descending FlightAware UK
Sun 03:03:07 AM 53.4850 -5.6790 88° East 465 535 28,500 -2,500 Climbing FlightAware ADS-B
Sun 03:03:24 AM 53.4794 -5.5666 88° East 452 520 26,200 -4,971 Descending FlightAware UK
Sun 03:03:42 AM 53.4804 -5.5034 88° East 448 516 25,600 1,929 Descending FlightAware UK
Sun 03:03:52 AM 53.4870 -5.5150 88° East 452 520 27,100 -400 Climbing FlightAware ADS-B
Sun 03:04:12 AM 53.4820 -5.3988 88° East 442 509 25,400 -150 Descending FlightAware UK
Sun 03:04:32 AM 53.4920 -5.3780 88° East 455 524 27,000 167 Climbing FlightAware ADS-B
Sun 03:04:48 AM 53.4917 -5.2730 88° East 446 513 25,500 -2,647 Descending FlightAware UK
Sun 03:05:06 AM 53.4974 -5.2098 81° East 446 513 25,500 3,750 Level FlightAware UK
Sun 03:05:12 AM 53.5050 -5.2340 81° East 458 527 27,000  Climbing FlightAware ADS-B
Sun 03:05:30 AM 53.5052 -5.1256 81° East 446 513 25,500 -2,500 Descending FlightAware UK
Sun 03:05:48 AM 53.5110 -5.0623 81° East 448 516 25,500 3,333 Level FlightAware UK
Sun 03:05:57 AM 53.5190 -5.0850 81° East 461 531 27,000  Climbing FlightAware ADS-B
Sun 03:06:12 AM 53.5187 -4.9776 81° East 448 516 25,500 -2,727 Descending FlightAware UK
Sun 03:06:30 AM 53.5244 -4.9137 81° East 448 516 25,500 3,600 Level FlightAware UK
Sun 03:06:37 AM 53.5320 -4.9400 81° East 463 533 27,000 -500 Climbing FlightAware ADS-B
Sun 03:06:54 AM 53.5322 -4.8276 81° East 442 509 25,300 -3,257 Descending FlightAware UK
Sun 03:07:12 AM 53.5378 -4.7643 82° East 436 502 25,100 2,571 Descending FlightAware UK
Sun 03:07:22 AM 53.5460 -4.7780 82° East 448 516 26,500 -800 Climbing FlightAware ADS-B
Sun 03:07:42 AM 53.5469 -4.6623 82° East 426 490 24,700 -1,500 Descending FlightAware UK
Sun 03:08:02 AM 53.5580 -4.6400 82° East 447 514 25,500 -1,833 Climbing FlightAware ADS-B
Sun 03:08:18 AM 53.5527 -4.5390 82° East 422 486 23,600 -4,412 Descending FlightAware UK
Sun 03:08:36 AM 53.5523 -4.4786 91° East 416 479 23,000 2,000 Descending FlightAware UK
Sun 03:08:42 AM 53.5590 -4.5070 91° East 428 493 24,400 -1,250 Climbing FlightAware ADS-B
Sun 03:09:00 AM 53.5513 -4.3994 91° East 410 472 22,500 -3,333 Descending FlightAware UK
Sun 03:09:18 AM 53.5506 -4.3403 91° East 406 467 22,400 3,111 Descending FlightAware UK
Sun 03:09:27 AM 53.5570 -4.3620 91° East 415 478 23,900 -1,250 Climbing FlightAware ADS-B
Sun 03:09:42 AM 53.5503 -4.2640 91° East 392 451 21,900 -3,882 Descending FlightAware UK
Sun 03:10:01 AM 53.5501 -4.2072 90° East 384 442 21,700 2,880 Descending FlightAware UK
Sun 03:10:07 AM 53.5570 -4.2370 90° East 394 453 23,100 -2,500 Climbing FlightAware ADS-B
Sun 03:10:25 AM 53.5501 -4.1341 90° East 382 440 20,700 -6,000 Descending FlightAware UK
Sun 03:10:43 AM 53.5500 -4.0775 90° East 388 447 19,500 818 Descending FlightAware UK
Sun 03:10:47 AM 53.5570 -4.1120 90° East 410 472 21,000 -2,087 Climbing FlightAware ADS-B
Sun 03:11:06 AM 53.5499 -4.0018 90° East 390 449 18,700 -4,703 Descending FlightAware UK
Sun 03:11:24 AM 53.5498 -3.9449 90° East 392 451 18,100 1,615 Descending FlightAware UK
Sun 03:11:32 AM 53.5570 -3.9690 90° East 404 465 19,400 -2,160 Climbing FlightAware ADS-B
Sun 03:11:49 AM 53.5501 -3.8690 90° East 386 444 17,200 -4,971 Descending FlightAware UK
Sun 03:12:07 AM 53.5504 -3.8130 89° East 386 444 16,500 1,826 Descending FlightAware UK
Sun 03:12:12 AM 53.5570 -3.8420 89° East 398 458 17,900 -2,250 Climbing FlightAware ADS-B
Sun 03:12:31 AM 53.5508 -3.7388 89° East 382 440 15,600 -2,400 Descending FlightAware UK
Sun 03:12:57 AM 53.5580 -3.7160 89° East 401 461 16,100 -2,500 Climbing FlightAware ADS-B
Sun 03:13:19 AM 53.5514 -3.5897 89° East 378 435 13,600 -2,100 Descending FlightAware UK
Sun 03:13:37 AM 53.5580 -3.5860 89° East 392 451 14,700 -2,000 Climbing FlightAware ADS-B
Sun 03:14:01 AM 53.5511 -3.4631 89° East 366 421 12,200 -1,886 Descending FlightAware UK
Sun 03:14:12 AM 53.5590 -3.4850 89° East 379 436 13,600 -2,200 Climbing FlightAware ADS-B
Sun 03:14:31 AM 53.5519 -3.3756 89° East 362 417 11,100 -4,531 Descending FlightAware UK
Sun 03:15:01 AM 53.5520 -3.2877 90° East 352 405 9,900  Descending FlightAware UK
Sun 03:15:17 AM 53.5590 -3.2930 90° East 370 426 11,100 -1,333 Climbing FlightAware ADS-B
Sun 03:15:37 AM 53.5497 -3.1844 90° East 332 382 9,100 -4,105 Descending FlightAware UK
Sun 03:15:55 AM 53.5486 -3.1353 92° East 330 380 8,500 3,000 Descending FlightAware UK
Sun 03:15:57 AM 53.5560 -3.1800 92° East 354 407 10,100 4,941 Climbing FlightAware ADS-B
Sun 03:16:12 AM 53.5560 -3.1420 90° East 342 394 9,900 -4,412 Descending FlightAware ADS-B
Sun 03:16:31 AM 53.5464 -3.0403 90° East 312 359 7,600 -2,640 Descending FlightAware UK
Sun 03:16:37 AM 53.5540 -3.0740 90° East 346 398 8,800 -3,250 Climbing FlightAware ADS-B
Sun 03:16:55 AM 53.5447 -2.9742 90° East 332 382 6,300 -2,600 Descending FlightAware UK
Sun 03:17:07 AM 53.5520 -2.9920 90° East 358 412 7,500 2,000 Climbing FlightAware ADS-B
Sun 03:17:22 AM 53.5510 -2.9580 93° East 358 412 7,200 -4,400 Descending FlightAware ADS-B
Sun 03:17:37 AM 53.5418 -2.8570 93° East 322 371 5,300 -1,200 Descending FlightAware UK
Sun 03:17:47 AM 53.5500 -2.8820 93° East 345 397 6,700 -1,600 Climbing FlightAware ADS-B
Sun 03:18:07 AM 53.5398 -2.7769 93° East 316 364 4,500 -1,400 Descending FlightAware UK
Sun 03:18:17 AM 53.5480 -2.8020 93° East 336 387 6,000  Climbing FlightAware ADS-B
Sun 03:18:37 AM 53.5362 -2.6984 93° East 316 364 4,500  Descending FlightAware UK
Sun 03:18:47 AM 53.5460 -2.7250 93° East 341 392 6,000  Climbing FlightAware ADS-B
Sun 03:19:07 AM 53.5388 -2.6186 93° East 314 361 4,500  Descending FlightAware UK
Sun 03:19:12 AM 53.5480 -2.6600 93° East 339 390 6,000  Climbing FlightAware ADS-B
Sun 03:19:31 AM 53.5409 -2.5561 93° East 312 359 4,500  Descending FlightAware UK
Sun 03:19:42 AM 53.5510 -2.5790 93° East 341 392 6,000 -1,200 Climbing FlightAware ADS-B
Sun 03:20:01 AM 53.5433 -2.4765 93° East 310 357 3,900 -1,680 Descending FlightAware UK
Sun 03:20:07 AM 53.5530 -2.5140 93° East 333 383 5,300 -1,500 Climbing FlightAware ADS-B
Sun 03:20:25 AM 53.5451 -2.4143 93° East 308 354 3,300 -1,400 Descending FlightAware UK
Sun 03:20:37 AM 53.5510 -2.4340 93° East 320 368 4,600 -1,167 Climbing FlightAware ADS-B
Sun 03:21:01 AM 53.5314 -2.3290 93° East 290 334 2,600 -1,000 Descending FlightAware UK
Sun 03:21:07 AM 53.5400 -2.3640 93° East 304 350 4,100 -750 Climbing FlightAware ADS-B
Sun 03:21:25 AM 53.5225 -2.2749 93° East 276 318 2,300 -960 Descending FlightAware UK
Sun 03:21:32 AM 53.5320 -2.3110 93° East 287 330 3,700 -1,200 Climbing FlightAware ADS-B
Sun 03:21:55 AM 53.5123 -2.2121 93° East 254 292 1,700 -1,000 Descending FlightAware UK
Sun 03:22:02 AM 53.5220 -2.2480 93° East 263 303 3,200 -750 Climbing FlightAware ADS-B
Sun 03:22:19 AM 53.5050 -2.1662 93° East 236 272 1,400 -480 Descending FlightAware UK
Sun 03:22:27 AM 53.5140 -2.2000 93° East 240 276 3,000 -250 Climbing FlightAware ADS-B
Sun 03:22:43 AM 53.4983 -2.1233 93° East 222 255 1,300 -400 Descending FlightAware UK
Sun 03:22:57 AM 53.5050 -2.1480 93° East 218 251 2,800 3,310 Climbing FlightAware ADS-B
Sun 03:23:12 AM 53.4960 -2.1320 133° Southeast 196 226 2,900 200 Climbing FlightAware ADS-B
Sun 03:23:27 AM 53.4850 -2.1200 147° Southeast 184 212 2,900 -240 Level FlightAware ADS-B
Sun 03:23:37 AM 53.4780 -2.1180 170° South 177 204 2,800 -3,310 Descending FlightAware ADS-B
Sun 03:23:56 AM 53.4502 -2.0819 170° South 170 196 1,300  Descending FlightAware UK
Sun 03:24:07 AM 53.4570 -2.1320 170° South 153 176 2,800 3,000 Climbing FlightAware ADS-B
Sun 03:24:22 AM 53.4490 -2.1440 222° Southwest 154 177 2,600 -4,000 Descending FlightAware ADS-B
Sun 03:24:37 AM 53.4297 -2.1161 222° Southwest 168 193 800 -960 Descending FlightAware UK
Sun 03:24:47 AM 53.4390 -2.1680 222° Southwest 143 165 2,200 -960 Climbing FlightAware ADS-B
Sun 03:25:02 AM 53.4206 -2.1382 222° Southwest 154 177 400 -600 Descending FlightAware UK
Sun 03:25:17 AM 53.4280 -2.1930 222° Southwest 136 157 1,900 -600 Climbing FlightAware ADS-B
Sun 03:25:32 AM 53.4086 -2.1622 222° Southwest 162 186 100 -800 Descending FlightAware UK
Sun 03:25:47 AM 53.4160 -2.2180 222° Southwest 136 157 1,500 1,886 Climbing FlightAware ADS-B
Sun 03:26:07 AM 53.4090 -2.2340 234° Southwest 127 146 1,200 -655 Descending FlightAware ADS-B
Sun 03:26:42 AM 53.3970 -2.2600 232° Southwest 119 137 900 -600 Descending FlightAware ADS-B
Sun 03:26:57 AM 53.3920 -2.2710 233° Southwest 119 137 700 -667 Descending FlightAware ADS-B
Sun 03:27:27 AM 53.3820 -2.2930 233° Southwest 124 143 400 -750 Descending FlightAware ADS-B
Sun 03:27:37 AM 53.3780 -2.3000 226° Southwest 126 145 200 -1,200 Descending FlightAware ADS-B

Login

Don't have an account? Register now (free) for customized features, flight alerts, and more!